AirNav   TITAN Aviation Fuels
 
 1406 users online  

IN83 Lautzenhiser Airpark
Hamilton, Indiana, USA

GOING TO HAMILTON?


FAA INFORMATION EFFECTIVE 19 MAY 2022

Location

FAA Identifier: IN83
Lat/Long: 41-30-08.1810N 084-55-48.8650W
41-30.136350N 084-55.814417W
41.5022725,-84.9302403
(estimated)
Elevation: 928 ft. / 283 m (estimated)
Variation: 04W (1985)
From city: 2 miles SW of HAMILTON, IN
Time zone: UTC -4 (UTC -5 during Standard Time)
Zip code: 46793

Airport Operations

Airport use: Private use. Permission required prior to landing
Activation date: 07/1976
Control tower: no
ARTCC: CHICAGO CENTER
FSS: TERRE HAUTE FLIGHT SERVICE STATION
Attendance: UNATNDD
Wind indicator: no
Segmented circle: no

Airport Communications

WX AWOS-3 at ANQ (11 nm NW): 118.175 (260-668-5630)
WX AWOS-3 at GWB (13 nm SW): 124.15 (260-925-8225)
WX AWOS-3P at C62 (15 nm W): 119.925 (260-347-2967)

Nearby radio navigation aids

VOR radial/distance  VOR name  Freq  Var
OLKr062/(29.8)WEBSTER LAKE VOR110.4003W
FWAr026/33.5FORT WAYNE VORTAC117.8006W
LFDr197/34.4LITCHFIELD VOR/DME111.2005W

 
NDB name  Hdg/Dist  Freq  Var  ID
SHENK008/11.722705WGW --. .--
STURGIS134/29.338204WIRS .. .-. ...

Airport Services

Runway Information

Runway 4/22

Dimensions: 2200 x 80 ft. / 671 x 24 m
Surface: turf
RUNWAY 4  RUNWAY 22
Traffic pattern: leftleft

Airport Ownership and Management from official FAA records

Ownership: Privately-owned
Owner: JOHN L. LAUTZENHISER
0694 SR 427
HAMILTON, IN 46742
Phone (260) 488-4447
Manager: JOHN L. LAUTZENHISER
5618 CR 6
HAMILTON, IN 46742
Phone 260-488-4447

Additional Remarks

FOR CD CTC CHICAGO ARTCC AT 630-906-8921.

Instrument Procedures

There are no published instrument procedures at IN83.

Some nearby airports with instrument procedures:

KANQ - Tri-State Steuben County Airport (11 nm NW)
KGWB - De Kalb County Airport (13 nm SW)
C62 - Kendallville Municipal Airport (15 nm W)
0G6 - Williams County Airport (19 nm E)
KSMD - Smith Field Airport (24 nm SW)
 
Loc | Ops | Rwys | IFR | FBO | Links
Com | Nav | Svcs | Stats | Notes
Area around IN83 (Lautzenhiser Airpark)
 
Road maps at: MapQuest Bing Google
 
Aerial photo
WARNING: Photo may not be current or correct
Aerial photo of IN83 (Lautzenhiser Airpark)
Photo by Mark Hansbarger
Photo taken 17-Apr-2009
looking Southwest.

Do you have a better or more recent aerial photo of Lautzenhiser Airpark that you would like to share? If so, please send us your photo.

 
Sectional chart

 
Airport distance calculator
Flying to Lautzenhiser Airpark? Find the distance to fly.

From to IN83

Sunrise and sunset
Times for 23-May-2022
 Local
(UTC-4)
 Zulu
(UTC)
Morning civil twilight05:4209:42
Sunrise06:1510:15
Sunset20:5800:58
Evening civil twilight21:3101:31

Current date and time
Zulu (UTC)  23-May-2022 22:07:31
Local (UTC-4)  23-May-2022 18:07:31
 
METAR
KANQ 
11nm NW 
232155Z AUTO 11012G18KT 10SM FEW046 BKN055 16/06 A3025 RMK AO2
KGWB 
13nm SW 
232155Z AUTO 08008KT 10SM SCT044 BKN050 17/07 A3025 RMK AO2
KC62 
15nm W 
232155Z AUTO 07012KT 10SM SCT049 BKN060 16/07 A3025 RMK AO2 T01670071
TAF
KFWA 
34nm S 
231734Z 2318/2418 07009KT P6SM SCT250
NOTAMs
Click for the latest NOTAMs
NOTAMs are issued by the DoD/FAA and will open in a separate window not controlled by AirNav.

 

 
 

Would you like to see your business listed on this page?

 If your business provides an interesting product or service to pilots, flight crews, aircraft, or users of the Lautzenhiser Airpark, you should consider listing it here.  To start the listing process, click on the button below
 
Add a business
 

Other Pages about Lautzenhiser Airpark

Update a link
 
Copyright © AirNav, LLC. All rights reserved. Privacy Policy  Contact